sensor_id;sensor_type;location;lat;lon;timestamp;pressure;altitude;pressure_sealevel;temperature;humidity
62333;BME280;48624;49.812;8.562;2023-05-24T00:01:21;101081.94;;;11.47;72.30
62333;BME280;48624;49.812;8.562;2023-05-24T00:03:53;101086.41;;;11.47;72.46
62333;BME280;48624;49.812;8.562;2023-05-24T00:06:19;101085.66;;;11.45;72.42
62333;BME280;48624;49.812;8.562;2023-05-24T00:08:45;101086.88;;;11.39;72.73
62333;BME280;48624;49.812;8.562;2023-05-24T00:11:10;101078.34;;;11.34;73.27
62333;BME280;48624;49.812;8.562;2023-05-24T00:13:36;101084.41;;;11.36;72.67
62333;BME280;48624;49.812;8.562;2023-05-24T00:16:02;101078.34;;;11.34;73.09
62333;BME280;48624;49.812;8.562;2023-05-24T00:18:27;101078.06;;;11.38;72.59
62333;BME280;48624;49.812;8.562;2023-05-24T00:20:56;101074.34;;;11.27;73.46
62333;BME280;48624;49.812;8.562;2023-05-24T00:23:23;101074.53;;;11.09;74.82
62333;BME280;48624;49.812;8.562;2023-05-24T00:25:50;101072.94;;;11.06;74.85
62333;BME280;48624;49.812;8.562;2023-05-24T00:28:15;101072.53;;;10.98;75.45
62333;BME280;48624;49.812;8.562;2023-05-24T00:30:40;101072.53;;;10.98;75.07
62333;BME280;48624;49.812;8.562;2023-05-24T00:33:06;101061.66;;;11.03;74.34
62333;BME280;48624;49.812;8.562;2023-05-24T00:35:31;101055.97;;;11.09;73.83
62333;BME280;48624;49.812;8.562;2023-05-24T00:37:56;101061.16;;;10.96;74.29
62333;BME280;48624;49.812;8.562;2023-05-24T00:40:22;101058.00;;;10.89;74.13
62333;BME280;48624;49.812;8.562;2023-05-24T00:42:47;101056.00;;;10.78;74.79
62333;BME280;48624;49.812;8.562;2023-05-24T00:45:12;101052.94;;;11.15;71.91
62333;BME280;48624;49.812;8.562;2023-05-24T00:47:38;101058.16;;;11.17;71.99
62333;BME280;48624;49.812;8.562;2023-05-24T00:50:06;101053.09;;;10.83;73.52
62333;BME280;48624;49.812;8.562;2023-05-24T00:52:31;101054.97;;;10.50;75.75
62333;BME280;48624;49.812;8.562;2023-05-24T00:54:57;101056.84;;;10.32;76.93
62333;BME280;48624;49.812;8.562;2023-05-24T00:57:22;101057.97;;;10.28;76.79
62333;BME280;48624;49.812;8.562;2023-05-24T00:59:49;101065.41;;;10.21;76.79
62333;BME280;48624;49.812;8.562;2023-05-24T01:02:15;101066.94;;;10.25;76.70
62333;BME280;48624;49.812;8.562;2023-05-24T01:04:41;101077.63;;;9.92;78.12
62333;BME280;48624;49.812;8.562;2023-05-24T01:10:05;101074.53;;;9.83;78.63
62333;BME280;48624;49.812;8.562;2023-05-24T01:12:55;101077.63;;;9.92;77.82
62333;BME280;48624;49.812;8.562;2023-05-24T01:15:41;101079.00;;;9.99;78.12
62333;BME280;48624;49.812;8.562;2023-05-24T01:18:40;101070.81;;;10.04;77.07
62333;BME280;48624;49.812;8.562;2023-05-24T01:27:05;101079.69;;;9.87;77.90
62333;BME280;48624;49.812;8.562;2023-05-24T01:29:32;101085.41;;;10.11;76.20
62333;BME280;48624;49.812;8.562;2023-05-24T01:31:58;101083.47;;;9.65;79.14
62333;BME280;48624;49.812;8.562;2023-05-24T01:34:24;101078.13;;;9.82;78.16
62333;BME280;48624;49.812;8.562;2023-05-24T01:36:51;101079.25;;;9.78;77.96
62333;BME280;48624;49.812;8.562;2023-05-24T01:39:17;101073.78;;;9.65;78.99
62333;BME280;48624;49.812;8.562;2023-05-24T01:44:46;101081.47;;;9.70;78.70
62333;BME280;48624;49.812;8.562;2023-05-24T01:49:50;101068.88;;;9.57;79.03
62333;BME280;48624;49.812;8.562;2023-05-24T01:52:22;101078.66;;;9.89;77.32
62333;BME280;48624;49.812;8.562;2023-05-24T01:54:51;101071.56;;;10.06;76.05
62333;BME280;48624;49.812;8.562;2023-05-24T01:57:18;101074.47;;;9.69;78.02
62333;BME280;48624;49.812;8.562;2023-05-24T01:59:45;101074.91;;;9.77;77.62
62333;BME280;48624;49.812;8.562;2023-05-24T02:02:11;101070.34;;;9.63;77.93
62333;BME280;48624;49.812;8.562;2023-05-24T02:04:37;101081.22;;;9.75;77.24
62333;BME280;48624;49.812;8.562;2023-05-24T02:07:02;101079.16;;;9.80;76.84
62333;BME280;48624;49.812;8.562;2023-05-24T02:09:28;101086.13;;;9.65;77.62
62333;BME280;48624;49.812;8.562;2023-05-24T02:11:53;101079.56;;;9.72;77.39
62333;BME280;48624;49.812;8.562;2023-05-24T02:14:18;101073.50;;;9.54;78.47
62333;BME280;48624;49.812;8.562;2023-05-24T02:16:45;101085.41;;;9.45;78.82
62333;BME280;48624;49.812;8.562;2023-05-24T02:19:11;101081.66;;;9.83;77.09
62333;BME280;48624;49.812;8.562;2023-05-24T02:21:37;101084.22;;;9.51;78.36
62333;BME280;48624;49.812;8.562;2023-05-24T02:24:03;101083.34;;;9.68;77.53
62333;BME280;48624;49.812;8.562;2023-05-24T02:26:28;101089.13;;;9.58;78.23
62333;BME280;48624;49.812;8.562;2023-05-24T02:28:53;101087.38;;;9.91;76.71
62333;BME280;48624;49.812;8.562;2023-05-24T02:31:19;101083.00;;;9.74;77.16
62333;BME280;48624;49.812;8.562;2023-05-24T02:33:45;101096.13;;;9.60;77.65
62333;BME280;48624;49.812;8.562;2023-05-24T02:36:11;101084.22;;;9.51;77.68
62333;BME280;48624;49.812;8.562;2023-05-24T02:38:36;101085.41;;;9.45;78.49
62333;BME280;48624;49.812;8.562;2023-05-24T02:41:02;101082.09;;;9.57;77.62
62333;BME280;48624;49.812;8.562;2023-05-24T02:43:27;101089.28;;;9.55;78.02
62333;BME280;48624;49.812;8.562;2023-05-24T02:45:52;101091.41;;;9.49;77.21
62333;BME280;48624;49.812;8.562;2023-05-24T02:48:18;101093.56;;;9.74;76.82
62333;BME280;48624;49.812;8.562;2023-05-24T02:50:43;101087.94;;;9.80;76.02
62333;BME280;48624;49.812;8.562;2023-05-24T02:53:08;101094.19;;;9.79;75.83
62333;BME280;48624;49.812;8.562;2023-05-24T02:55:34;101093.06;;;9.99;74.66
62333;BME280;48624;49.812;8.562;2023-05-24T02:57:59;101083.44;;;9.98;74.67
62333;BME280;48624;49.812;8.562;2023-05-24T03:00:25;101094.88;;;9.99;75.30
62333;BME280;48624;49.812;8.562;2023-05-24T03:02:50;101090.09;;;9.90;75.71
62333;BME280;48624;49.812;8.562;2023-05-24T03:05:16;101088.47;;;10.19;74.10
62333;BME280;48624;49.812;8.562;2023-05-24T03:07:42;101084.22;;;10.17;74.83
62333;BME280;48624;49.812;8.562;2023-05-24T03:10:07;101090.97;;;10.06;74.84
62333;BME280;48624;49.812;8.562;2023-05-24T03:12:33;101086.19;;;9.97;75.03
62333;BME280;48624;49.812;8.562;2023-05-24T03:14:58;101085.41;;;10.11;74.58
62333;BME280;48624;49.812;8.562;2023-05-24T03:17:23;101078.25;;;9.97;75.31
62333;BME280;48624;49.812;8.562;2023-05-24T03:19:49;101097.72;;;9.96;74.92
62333;BME280;48624;49.812;8.562;2023-05-24T03:22:15;101087.31;;;9.59;76.07
62333;BME280;48624;49.812;8.562;2023-05-24T03:24:40;101077.78;;;9.73;75.38
62333;BME280;48624;49.812;8.562;2023-05-24T03:27:05;101093.31;;;9.79;75.20
62333;BME280;48624;49.812;8.562;2023-05-24T03:29:30;101088.28;;;9.74;75.47
62333;BME280;48624;49.812;8.562;2023-05-24T03:31:56;101093.78;;;9.53;75.83
62333;BME280;48624;49.812;8.562;2023-05-24T03:34:22;101092.28;;;9.65;75.32
62333;BME280;48624;49.812;8.562;2023-05-24T03:36:47;101083.59;;;9.63;75.15
62333;BME280;48624;49.812;8.562;2023-05-24T03:39:12;101093.50;;;9.76;73.68
62333;BME280;48624;49.812;8.562;2023-05-24T03:41:37;101090.78;;;9.77;73.74
62333;BME280;48624;49.812;8.562;2023-05-24T03:44:03;101093.56;;;9.74;74.07
62333;BME280;48624;49.812;8.562;2023-05-24T03:46:28;101090.16;;;9.88;72.89
62333;BME280;48624;49.812;8.562;2023-05-24T03:48:54;101089.59;;;9.83;72.81
62333;BME280;48624;49.812;8.562;2023-05-24T03:51:19;101091.72;;;10.08;71.58
62333;BME280;48624;49.812;8.562;2023-05-24T03:53:44;101094.41;;;9.58;73.02
62333;BME280;48624;49.812;8.562;2023-05-24T03:56:10;101096.94;;;9.44;73.40
62333;BME280;48624;49.812;8.562;2023-05-24T03:58:35;101096.91;;;9.78;71.70
62333;BME280;48624;49.812;8.562;2023-05-24T04:01:01;101093.97;;;9.50;72.55
62333;BME280;48624;49.812;8.562;2023-05-24T04:03:26;101091.53;;;9.29;73.14
62333;BME280;48624;49.812;8.562;2023-05-24T04:05:52;101098.13;;;9.54;72.86
62333;BME280;48624;49.812;8.562;2023-05-24T04:08:17;101093.88;;;9.52;72.59
62333;BME280;48624;49.812;8.562;2023-05-24T04:10:43;101093.38;;;9.61;72.93
62333;BME280;48624;49.812;8.562;2023-05-24T04:13:08;101104.41;;;9.69;73.18
62333;BME280;48624;49.812;8.562;2023-05-24T04:15:33;101102.78;;;9.67;73.38
62333;BME280;48624;49.812;8.562;2023-05-24T04:17:59;101098.81;;;9.42;73.64
62333;BME280;48624;49.812;8.562;2023-05-24T04:20:27;101102.63;;;9.70;71.96
62333;BME280;48624;49.812;8.562;2023-05-24T04:22:53;101103.22;;;9.75;72.21
62333;BME280;48624;49.812;8.562;2023-05-24T04:25:20;101095.28;;;9.75;72.21
62333;BME280;48624;49.812;8.562;2023-05-24T04:27:45;101107.16;;;9.68;72.07
62333;BME280;48624;49.812;8.562;2023-05-24T04:30:14;101103.38;;;9.56;72.41
62333;BME280;48624;49.812;8.562;2023-05-24T04:32:41;101099.28;;;9.66;70.52
62333;BME280;48624;49.812;8.562;2023-05-24T04:35:08;101102.09;;;9.63;70.95
62333;BME280;48624;49.812;8.562;2023-05-24T04:37:33;101092.78;;;9.56;70.97
62333;BME280;48624;49.812;8.562;2023-05-24T04:39:59;101098.09;;;9.72;70.53
62333;BME280;48624;49.812;8.562;2023-05-24T04:42:24;101101.44;;;9.76;69.41
62333;BME280;48624;49.812;8.562;2023-05-24T04:44:51;101099.22;;;9.68;70.03
62333;BME280;48624;49.812;8.562;2023-05-24T04:47:16;101107.63;;;9.92;68.55
62333;BME280;48624;49.812;8.562;2023-05-24T04:49:41;101100.13;;;9.67;69.13
62333;BME280;48624;49.812;8.562;2023-05-24T04:52:07;101109.38;;;9.92;68.50
62333;BME280;48624;49.812;8.562;2023-05-24T04:54:32;101108.91;;;9.51;70.20
62333;BME280;48624;49.812;8.562;2023-05-24T04:56:58;101115.59;;;9.75;69.17
62333;BME280;48624;49.812;8.562;2023-05-24T04:59:23;101110.84;;;9.81;68.70
62333;BME280;48624;49.812;8.562;2023-05-24T05:01:49;101113.44;;;9.65;69.96
62333;BME280;48624;49.812;8.562;2023-05-24T05:04:14;101114.47;;;9.63;71.08
62333;BME280;48624;49.812;8.562;2023-05-24T05:06:39;101108.25;;;9.80;70.04
62333;BME280;48624;49.812;8.562;2023-05-24T05:09:07;101113.41;;;9.83;69.36
62333;BME280;48624;49.812;8.562;2023-05-24T05:11:39;101114.84;;;9.73;70.38
62333;BME280;48624;49.812;8.562;2023-05-24T05:14:04;101116.56;;;10.06;68.23
62333;BME280;48624;49.812;8.562;2023-05-24T05:16:30;101119.75;;;9.63;69.48
62333;BME280;48624;49.812;8.562;2023-05-24T05:18:56;101124.06;;;9.81;69.34
62333;BME280;48624;49.812;8.562;2023-05-24T05:21:21;101138.94;;;9.84;69.50
62333;BME280;48624;49.812;8.562;2023-05-24T05:23:46;101135.84;;;9.92;69.30
62333;BME280;48624;49.812;8.562;2023-05-24T05:26:12;101135.59;;;9.80;69.37
62333;BME280;48624;49.812;8.562;2023-05-24T05:28:37;101144.94;;;10.04;68.94
62333;BME280;48624;49.812;8.562;2023-05-24T05:31:02;101135.63;;;9.63;69.83
62333;BME280;48624;49.812;8.562;2023-05-24T05:33:30;101141.38;;;9.71;69.46
62333;BME280;48624;49.812;8.562;2023-05-24T05:35:56;101146.16;;;9.80;68.77
62333;BME280;48624;49.812;8.562;2023-05-24T05:38:21;101140.72;;;9.50;69.77
62333;BME280;48624;49.812;8.562;2023-05-24T05:40:46;101134.66;;;9.48;70.14
62333;BME280;48624;49.812;8.562;2023-05-24T05:43:11;101145.84;;;9.87;68.35
62333;BME280;48624;49.812;8.562;2023-05-24T05:45:37;101137.91;;;9.87;68.40
62333;BME280;48624;49.812;8.562;2023-05-24T05:48:02;101141.53;;;9.68;68.70
62333;BME280;48624;49.812;8.562;2023-05-24T05:50:27;101140.47;;;9.88;67.84
62333;BME280;48624;49.812;8.562;2023-05-24T05:52:53;101148.66;;;9.99;67.59
62333;BME280;48624;49.812;8.562;2023-05-24T05:55:18;101140.16;;;10.10;66.48
62333;BME280;48624;49.812;8.562;2023-05-24T05:57:43;101150.91;;;10.39;65.19
62333;BME280;48624;49.812;8.562;2023-05-24T06:00:09;101150.13;;;10.05;66.48
62333;BME280;48624;49.812;8.562;2023-05-24T06:02:34;101149.13;;;10.24;66.50
62333;BME280;48624;49.812;8.562;2023-05-24T06:05:00;101162.47;;;10.22;66.77
62333;BME280;48624;49.812;8.562;2023-05-24T06:07:25;101160.63;;;10.07;66.19
62333;BME280;48624;49.812;8.562;2023-05-24T06:09:50;101158.78;;;10.41;66.07
62333;BME280;48624;49.812;8.562;2023-05-24T06:12:16;101163.22;;;10.24;67.41
62333;BME280;48624;49.812;8.562;2023-05-24T06:14:41;101158.94;;;10.06;67.10
62333;BME280;48624;49.812;8.562;2023-05-24T06:17:06;101171.34;;;10.21;66.41
62333;BME280;48624;49.812;8.562;2023-05-24T06:19:32;101157.44;;;10.50;66.00
62333;BME280;48624;49.812;8.562;2023-05-24T06:21:58;101157.91;;;10.40;66.31
62333;BME280;48624;49.812;8.562;2023-05-24T06:24:23;101168.69;;;10.37;67.31
62333;BME280;48624;49.812;8.562;2023-05-24T06:26:50;101157.75;;;10.27;65.78
62333;BME280;48624;49.812;8.562;2023-05-24T06:29:15;101167.41;;;10.28;66.77
62333;BME280;48624;49.812;8.562;2023-05-24T06:31:43;101162.91;;;10.47;66.50
62333;BME280;48624;49.812;8.562;2023-05-24T06:34:11;101161.84;;;10.33;66.73
62333;BME280;48624;49.812;8.562;2023-05-24T06:36:36;101164.28;;;10.54;66.16
62333;BME280;48624;49.812;8.562;2023-05-24T06:39:07;101168.66;;;10.86;65.25
62333;BME280;48624;49.812;8.562;2023-05-24T06:41:32;101166.91;;;10.70;64.73
62333;BME280;48624;49.812;8.562;2023-05-24T06:43:58;101180.66;;;10.77;64.15
62333;BME280;48624;49.812;8.562;2023-05-24T06:46:23;101180.13;;;10.86;63.32
62333;BME280;48624;49.812;8.562;2023-05-24T06:48:48;101182.44;;;10.76;63.58
62333;BME280;48624;49.812;8.562;2023-05-24T06:51:14;101188.28;;;10.51;65.04
62333;BME280;48624;49.812;8.562;2023-05-24T06:53:39;101190.84;;;10.52;65.10
62333;BME280;48624;49.812;8.562;2023-05-24T06:56:05;101184.19;;;11.08;63.66
62333;BME280;48624;49.812;8.562;2023-05-24T06:58:33;101173.00;;;11.03;61.57
62333;BME280;48624;49.812;8.562;2023-05-24T07:01:00;101172.69;;;11.23;62.00
62333;BME280;48624;49.812;8.562;2023-05-24T07:03:25;101176.81;;;11.44;60.72
62333;BME280;48624;49.812;8.562;2023-05-24T07:05:51;101170.94;;;11.08;61.42
62333;BME280;48624;49.812;8.562;2023-05-24T07:08:16;101174.22;;;10.97;62.18
62333;BME280;48624;49.812;8.562;2023-05-24T07:10:41;101171.72;;;11.55;60.22
62333;BME280;48624;49.812;8.562;2023-05-24T07:13:08;101180.66;;;11.38;61.70
62333;BME280;48624;49.812;8.562;2023-05-24T07:15:34;101176.81;;;11.44;62.01
62333;BME280;48624;49.812;8.562;2023-05-24T07:17:59;101179.66;;;11.55;62.04
62333;BME280;48624;49.812;8.562;2023-05-24T07:20:25;101173.22;;;11.59;61.52
62333;BME280;48624;49.812;8.562;2023-05-24T07:22:50;101175.63;;;11.33;61.79
62333;BME280;48624;49.812;8.562;2023-05-24T07:25:16;101173.28;;;11.43;62.06
62333;BME280;48624;49.812;8.562;2023-05-24T07:27:42;101173.13;;;11.61;60.77
62333;BME280;48624;49.812;8.562;2023-05-24T07:30:07;101160.44;;;11.80;61.73
62333;BME280;48624;49.812;8.562;2023-05-24T07:32:33;101162.44;;;11.62;62.61
62333;BME280;48624;49.812;8.562;2023-05-24T07:34:58;101169.16;;;11.83;62.31
62333;BME280;48624;49.812;8.562;2023-05-24T07:37:23;101170.19;;;11.80;61.66
62333;BME280;48624;49.812;8.562;2023-05-24T07:39:49;101173.16;;;11.90;61.92
62333;BME280;48624;49.812;8.562;2023-05-24T07:42:16;101176.94;;;12.29;61.10
62333;BME280;48624;49.812;8.562;2023-05-24T07:44:41;101173.56;;;12.82;58.71
62333;BME280;48624;49.812;8.562;2023-05-24T07:47:06;101177.56;;;12.75;56.16
62333;BME280;48624;49.812;8.562;2023-05-24T07:49:32;101172.47;;;13.12;53.63
62333;BME280;48624;49.812;8.562;2023-05-24T07:51:57;101185.50;;;13.02;55.33
62333;BME280;48624;49.812;8.562;2023-05-24T07:54:23;101186.66;;;13.39;54.91
62333;BME280;48624;49.812;8.562;2023-05-24T07:56:49;101192.63;;;13.42;52.84
62333;BME280;48624;49.812;8.562;2023-05-24T07:59:14;101194.31;;;13.43;52.68
62333;BME280;48624;49.812;8.562;2023-05-24T08:01:40;101194.09;;;13.21;55.00
62333;BME280;48624;49.812;8.562;2023-05-24T08:04:05;101195.91;;;13.33;53.72
62333;BME280;48624;49.812;8.562;2023-05-24T08:06:32;101199.81;;;13.14;54.82
62333;BME280;48624;49.812;8.562;2023-05-24T08:08:58;101199.34;;;12.67;56.14
62333;BME280;48624;49.812;8.562;2023-05-24T08:11:24;101198.66;;;13.18;52.76
62333;BME280;48624;49.812;8.562;2023-05-24T08:13:49;101206.63;;;13.72;52.12
62333;BME280;48624;49.812;8.562;2023-05-24T08:16:15;101201.63;;;13.54;50.67
62333;BME280;48624;49.812;8.562;2023-05-24T08:18:40;101193.78;;;13.25;52.77
62333;BME280;48624;49.812;8.562;2023-05-24T08:21:06;101201.63;;;13.80;51.32
62333;BME280;48624;49.812;8.562;2023-05-24T08:23:33;101196.16;;;13.43;53.46
62333;BME280;48624;49.812;8.562;2023-05-24T08:25:58;101203.13;;;13.18;54.80
62333;BME280;48624;49.812;8.562;2023-05-24T08:28:25;101209.72;;;13.12;54.83
62333;BME280;48624;49.812;8.562;2023-05-24T08:30:51;101199.78;;;13.55;51.49
62333;BME280;48624;49.812;8.562;2023-05-24T08:33:16;101214.59;;;13.06;52.15
62333;BME280;48624;49.812;8.562;2023-05-24T08:35:42;101198.31;;;13.51;52.33
62333;BME280;48624;49.812;8.562;2023-05-24T08:38:07;101200.09;;;13.50;53.55
62333;BME280;48624;49.812;8.562;2023-05-24T08:40:33;101201.31;;;13.72;52.69
62333;BME280;48624;49.812;8.562;2023-05-24T08:43:00;101216.53;;;13.70;53.80
62333;BME280;48624;49.812;8.562;2023-05-24T08:45:29;101204.72;;;14.00;50.78
62333;BME280;48624;49.812;8.562;2023-05-24T08:47:55;101206.31;;;13.64;52.32
62333;BME280;48624;49.812;8.562;2023-05-24T08:50:21;101200.44;;;13.84;51.44
62333;BME280;48624;49.812;8.562;2023-05-24T08:52:46;101197.09;;;13.42;52.85
62333;BME280;48624;49.812;8.562;2023-05-24T08:55:13;101204.63;;;13.63;51.53
62333;BME280;48624;49.812;8.562;2023-05-24T08:57:39;101198.63;;;13.98;50.56
62333;BME280;48624;49.812;8.562;2023-05-24T09:00:09;101197.88;;;13.83;49.78
62333;BME280;48624;49.812;8.562;2023-05-24T09:02:37;101191.78;;;13.01;50.96
62333;BME280;48624;49.812;8.562;2023-05-24T09:05:05;101208.75;;;13.80;49.70
62333;BME280;48624;49.812;8.562;2023-05-24T09:07:32;101200.78;;;13.80;48.90
62333;BME280;48624;49.812;8.562;2023-05-24T09:10:01;101207.38;;;13.74;50.31
62333;BME280;48624;49.812;8.562;2023-05-24T09:12:30;101209.06;;;13.49;50.10
62333;BME280;48624;49.812;8.562;2023-05-24T09:15:00;101201.03;;;13.36;50.59
62333;BME280;48624;49.812;8.562;2023-05-24T09:17:26;101205.34;;;13.65;50.17
62333;BME280;48624;49.812;8.562;2023-05-24T09:19:51;101206.16;;;14.30;49.41
62333;BME280;48624;49.812;8.562;2023-05-24T09:22:23;101201.75;;;14.42;50.09
62333;BME280;48624;49.812;8.562;2023-05-24T09:24:50;101200.03;;;15.03;49.35
62333;BME280;48624;49.812;8.562;2023-05-24T09:27:20;101187.59;;;15.26;46.95
62333;BME280;48624;49.812;8.562;2023-05-24T09:29:46;101190.13;;;14.80;48.04
62333;BME280;48624;49.812;8.562;2023-05-24T09:32:16;101179.88;;;15.34;47.11
62333;BME280;48624;49.812;8.562;2023-05-24T09:34:43;101187.84;;;14.87;49.37
62333;BME280;48624;49.812;8.562;2023-05-24T09:37:20;101181.59;;;14.75;49.39
62333;BME280;48624;49.812;8.562;2023-05-24T09:39:47;101190.69;;;14.60;50.02
62333;BME280;48624;49.812;8.562;2023-05-24T09:42:23;101181.06;;;15.19;47.94
62333;BME280;48624;49.812;8.562;2023-05-24T09:45:03;101187.81;;;14.76;48.18
62333;BME280;48624;49.812;8.562;2023-05-24T09:47:32;101185.53;;;14.82;47.95
62333;BME280;48624;49.812;8.562;2023-05-24T09:49:59;101183.22;;;15.14;47.94
62333;BME280;48624;49.812;8.562;2023-05-24T09:52:25;101195.19;;;15.44;46.77
62333;BME280;48624;49.812;8.562;2023-05-24T09:54:50;101185.69;;;15.28;44.15
62333;BME280;48624;49.812;8.562;2023-05-24T09:57:16;101187.16;;;15.32;42.85
62333;BME280;48624;49.812;8.562;2023-05-24T09:59:41;101193.63;;;14.81;43.74
62333;BME280;48624;49.812;8.562;2023-05-24T10:02:09;101189.88;;;15.08;44.15
62333;BME280;48624;49.812;8.562;2023-05-24T10:04:35;101182.97;;;15.52;40.79
62333;BME280;48624;49.812;8.562;2023-05-24T10:07:01;101188.25;;;15.41;42.58
62333;BME280;48624;49.812;8.562;2023-05-24T10:09:28;101184.56;;;15.19;43.61
62333;BME280;48624;49.812;8.562;2023-05-24T10:12:00;101182.03;;;16.11;42.65
62333;BME280;48624;49.812;8.562;2023-05-24T10:14:26;101182.25;;;15.85;43.38
62333;BME280;48624;49.812;8.562;2023-05-24T10:16:53;101183.06;;;15.62;42.08
62333;BME280;48624;49.812;8.562;2023-05-24T10:19:19;101177.19;;;15.93;42.51
62333;BME280;48624;49.812;8.562;2023-05-24T10:21:46;101177.19;;;15.93;43.47
62333;BME280;48624;49.812;8.562;2023-05-24T10:24:15;101177.09;;;15.47;43.34
62333;BME280;48624;49.812;8.562;2023-05-24T10:26:44;101178.66;;;16.08;43.25
62333;BME280;48624;49.812;8.562;2023-05-24T10:29:28;101179.94;;;15.80;43.66
62333;BME280;48624;49.812;8.562;2023-05-24T10:31:57;101174.25;;;15.96;43.40
62333;BME280;48624;49.812;8.562;2023-05-24T10:34:23;101164.75;;;15.69;45.62
62333;BME280;48624;49.812;8.562;2023-05-24T10:36:49;101171.81;;;15.70;44.90
62333;BME280;48624;49.812;8.562;2023-05-24T10:39:19;101172.19;;;16.22;43.45
62333;BME280;48624;49.812;8.562;2023-05-24T10:41:45;101164.25;;;16.32;43.63
62333;BME280;48624;49.812;8.562;2023-05-24T10:44:11;101163.97;;;16.58;43.58
62333;BME280;48624;49.812;8.562;2023-05-24T10:47:07;101169.94;;;16.39;42.38
62333;BME280;48624;49.812;8.562;2023-05-24T10:49:34;101165.81;;;16.46;43.65
62333;BME280;48624;49.812;8.562;2023-05-24T10:52:01;101157.31;;;16.74;43.97
62333;BME280;48624;49.812;8.562;2023-05-24T10:54:27;101162.50;;;16.54;44.74
62333;BME280;48624;49.812;8.562;2023-05-24T10:56:53;101157.56;;;16.38;44.92
62333;BME280;48624;49.812;8.562;2023-05-24T10:59:23;101159.56;;;17.01;43.04
62333;BME280;48624;49.812;8.562;2023-05-24T11:01:56;101158.09;;;16.32;42.84
62333;BME280;48624;49.812;8.562;2023-05-24T11:04:22;101149.00;;;16.56;43.30
62333;BME280;48624;49.812;8.562;2023-05-24T11:06:49;101144.09;;;16.72;41.21
62333;BME280;48624;49.812;8.562;2023-05-24T11:09:17;101139.75;;;17.56;40.91
62333;BME280;48624;49.812;8.562;2023-05-24T11:11:46;101143.13;;;17.80;39.29
62333;BME280;48624;49.812;8.562;2023-05-24T11:14:16;101144.81;;;17.81;40.35
62333;BME280;48624;49.812;8.562;2023-05-24T11:16:44;101143.69;;;18.14;39.55
62333;BME280;48624;49.812;8.562;2023-05-24T11:21:47;101132.19;;;18.02;40.51
62333;BME280;48624;49.812;8.562;2023-05-24T11:24:13;101135.72;;;17.72;40.63
62333;BME280;48624;49.812;8.562;2023-05-24T11:26:39;101126.34;;;17.87;41.91
62333;BME280;48624;49.812;8.562;2023-05-24T11:29:06;101131.44;;;16.42;41.45
62333;BME280;48624;49.812;8.562;2023-05-24T11:31:31;101127.53;;;17.00;43.00
62333;BME280;48624;49.812;8.562;2023-05-24T11:33:57;101135.88;;;17.18;40.44
62333;BME280;48624;49.812;8.562;2023-05-24T11:36:24;101128.44;;;17.84;40.07
62333;BME280;48624;49.812;8.562;2023-05-24T11:38:52;101128.97;;;17.78;39.74
62333;BME280;48624;49.812;8.562;2023-05-24T11:41:18;101120.66;;;18.12;37.73
62333;BME280;48624;49.812;8.562;2023-05-24T11:43:43;101128.41;;;18.15;39.30
62333;BME280;48624;49.812;8.562;2023-05-24T11:46:08;101121.88;;;17.98;38.98
62333;BME280;48624;49.812;8.562;2023-05-24T11:48:37;101123.66;;;17.87;38.88
62333;BME280;48624;49.812;8.562;2023-05-24T11:51:03;101121.59;;;18.71;37.21
62333;BME280;48624;49.812;8.562;2023-05-24T11:53:29;101121.00;;;18.48;38.29
62333;BME280;48624;49.812;8.562;2023-05-24T11:55:55;101115.63;;;18.28;38.45
62333;BME280;48624;49.812;8.562;2023-05-24T11:58:28;101111.91;;;18.10;39.25
62333;BME280;48624;49.812;8.562;2023-05-24T12:00:55;101102.59;;;18.04;41.60
62333;BME280;48624;49.812;8.562;2023-05-24T12:03:21;101111.91;;;18.20;39.76
62333;BME280;48624;49.812;8.562;2023-05-24T12:05:46;101106.16;;;18.34;40.02
62333;BME280;48624;49.812;8.562;2023-05-24T12:08:12;101111.06;;;18.09;40.45
62333;BME280;48624;49.812;8.562;2023-05-24T12:10:40;101111.84;;;18.70;38.41
62333;BME280;48624;49.812;8.562;2023-05-24T12:13:19;101107.53;;;18.19;39.27
62333;BME280;48624;49.812;8.562;2023-05-24T12:15:51;101098.69;;;18.57;38.96
62333;BME280;48624;49.812;8.562;2023-05-24T12:18:21;101105.63;;;18.70;39.19
62333;BME280;48624;49.812;8.562;2023-05-24T12:20:51;101099.44;;;17.99;39.24
62333;BME280;48624;49.812;8.562;2023-05-24T12:23:22;101081.72;;;19.16;37.54
62333;BME280;48624;49.812;8.562;2023-05-24T12:25:49;101096.28;;;18.44;38.99
62333;BME280;48624;49.812;8.562;2023-05-24T12:28:15;101097.97;;;19.05;37.49
62333;BME280;48624;49.812;8.562;2023-05-24T12:30:41;101088.41;;;19.40;37.31
62333;BME280;48624;49.812;8.562;2023-05-24T12:33:09;101090.66;;;19.45;38.71
62333;BME280;48624;49.812;8.562;2023-05-24T12:35:36;101094.78;;;19.39;36.08
62333;BME280;48624;49.812;8.562;2023-05-24T12:38:01;101094.50;;;19.70;34.59
62333;BME280;48624;49.812;8.562;2023-05-24T12:40:27;101097.53;;;19.19;37.38
62333;BME280;48624;49.812;8.562;2023-05-24T12:42:58;101089.09;;;19.04;36.61
62333;BME280;48624;49.812;8.562;2023-05-24T12:45:25;101094.19;;;17.97;38.17
62333;BME280;48624;49.812;8.562;2023-05-24T12:47:56;101084.84;;;19.02;37.00
62333;BME280;48624;49.812;8.562;2023-05-24T12:50:23;101090.84;;;19.23;37.39
62333;BME280;48624;49.812;8.562;2023-05-24T12:52:50;101083.28;;;19.85;36.68
62333;BME280;48624;49.812;8.562;2023-05-24T12:55:20;101086.28;;;20.46;33.27
62333;BME280;48624;49.812;8.562;2023-05-24T12:57:46;101089.25;;;20.97;34.11
62333;BME280;48624;49.812;8.562;2023-05-24T13:00:18;101077.09;;;20.75;34.20
62333;BME280;48624;49.812;8.562;2023-05-24T13:02:43;101083.75;;;20.62;34.14
62333;BME280;48624;49.812;8.562;2023-05-24T13:05:08;101077.75;;;20.69;34.30
62333;BME280;48624;49.812;8.562;2023-05-24T13:07:35;101069.41;;;20.80;33.85